sensor_id;sensor_type;location;lat;lon;timestamp;pressure;altitude;pressure_sealevel;temperature;humidity
24746;BME280;12845;52.042;6.838;2022-09-13T00:00:33;68594.84;;;16.43;99.94
24746;BME280;12845;52.042;6.838;2022-09-13T00:02:59;68593.69;;;16.42;100.00
24746;BME280;12845;52.042;6.838;2022-09-13T00:05:25;68591.16;;;16.45;99.85
24746;BME280;12845;52.042;6.838;2022-09-13T00:07:51;68594.44;;;16.45;99.91
24746;BME280;12845;52.042;6.838;2022-09-13T00:10:16;68597.09;;;16.45;99.38
24746;BME280;12845;52.042;6.838;2022-09-13T00:12:42;68597.09;;;16.45;100.00
24746;BME280;12845;52.042;6.838;2022-09-13T00:15:07;68597.44;;;16.51;99.64
24746;BME280;12845;52.042;6.838;2022-09-13T00:17:33;68606.22;;;16.54;99.34
24746;BME280;12845;52.042;6.838;2022-09-13T00:19:59;68606.81;;;16.54;99.83
24746;BME280;12845;52.042;6.838;2022-09-13T00:22:25;68606.22;;;16.54;100.00
24746;BME280;12845;52.042;6.838;2022-09-13T00:24:51;68607.94;;;16.55;100.00
24746;BME280;12845;52.042;6.838;2022-09-13T00:27:16;68606.22;;;16.54;100.00
24746;BME280;12845;52.042;6.838;2022-09-13T00:29:42;68597.28;;;16.48;100.00
24746;BME280;12845;52.042;6.838;2022-09-13T00:32:07;68599.00;;;16.50;100.00
24746;BME280;12845;52.042;6.838;2022-09-13T00:36:58;68599.97;;;16.48;100.00
24746;BME280;12845;52.042;6.838;2022-09-13T00:41:48;68598.25;;;16.46;100.00
24746;BME280;12845;52.042;6.838;2022-09-13T00:49:51;68597.94;;;16.41;100.00
24746;BME280;12845;52.042;6.838;2022-09-13T00:52:19;68595.41;;;16.44;100.00
24746;BME280;12845;52.042;6.838;2022-09-13T00:54:51;68591.59;;;16.43;100.00
24746;BME280;12845;52.042;6.838;2022-09-13T00:57:21;68600.78;;;16.44;100.00
24746;BME280;12845;52.042;6.838;2022-09-13T00:59:53;68599.06;;;16.42;100.00
24746;BME280;12845;52.042;6.838;2022-09-13T01:02:21;68592.00;;;16.41;100.00
24746;BME280;12845;52.042;6.838;2022-09-13T01:04:47;68593.13;;;16.42;100.00
24746;BME280;12845;52.042;6.838;2022-09-13T01:07:14;68589.88;;;16.41;100.00
24746;BME280;12845;52.042;6.838;2022-09-13T01:09:44;68595.97;;;16.44;100.00
24746;BME280;12845;52.042;6.838;2022-09-13T01:12:48;68598.84;;;16.47;100.00
24746;BME280;12845;52.042;6.838;2022-09-13T01:17:41;68592.88;;;16.46;100.00
24746;BME280;12845;52.042;6.838;2022-09-13T01:20:08;68596.53;;;16.45;100.00
24746;BME280;12845;52.042;6.838;2022-09-13T01:22:58;68590.59;;;16.44;100.00
24746;BME280;12845;52.042;6.838;2022-09-13T01:25:43;68593.28;;;16.44;100.00
24746;BME280;12845;52.042;6.838;2022-09-13T01:28:40;68589.88;;;16.41;100.00
24746;BME280;12845;52.042;6.838;2022-09-13T01:33:49;68589.13;;;16.38;100.00
24746;BME280;12845;52.042;6.838;2022-09-13T01:39:05;68596.72;;;16.47;100.00
24746;BME280;12845;52.042;6.838;2022-09-13T01:51:53;68612.66;;;16.62;100.00
24746;BME280;12845;52.042;6.838;2022-09-13T01:59:55;68601.84;;;16.52;100.00
24746;BME280;12845;52.042;6.838;2022-09-13T02:03:04;68609.66;;;16.57;100.00
24746;BME280;12845;52.042;6.838;2022-09-13T02:10:34;68621.06;;;16.67;100.00
24746;BME280;12845;52.042;6.838;2022-09-13T02:13:04;68615.69;;;16.67;100.00
24746;BME280;12845;52.042;6.838;2022-09-13T02:20:32;68605.66;;;16.53;100.00
24746;BME280;12845;52.042;6.838;2022-09-13T02:23:06;68612.50;;;16.59;100.00
24746;BME280;12845;52.042;6.838;2022-09-13T02:25:35;68620.72;;;16.62;100.00
24746;BME280;12845;52.042;6.838;2022-09-13T02:28:08;68615.34;;;16.62;100.00
24746;BME280;12845;52.042;6.838;2022-09-13T02:30:38;68612.50;;;16.59;100.00
24746;BME280;12845;52.042;6.838;2022-09-13T02:33:17;68611.38;;;16.58;99.39
24746;BME280;12845;52.042;6.838;2022-09-13T02:35:50;68620.06;;;16.68;98.33
24746;BME280;12845;52.042;6.838;2022-09-13T02:38:22;68622.94;;;16.71;99.64
24746;BME280;12845;52.042;6.838;2022-09-13T02:43:33;68619.59;;;16.61;100.00
24746;BME280;12845;52.042;6.838;2022-09-13T02:46:11;68604.13;;;16.54;100.00
24746;BME280;12845;52.042;6.838;2022-09-13T02:48:58;68588.31;;;16.42;100.00
24746;BME280;12845;52.042;6.838;2022-09-13T02:54:03;68580.19;;;16.33;100.00
24746;BME280;12845;52.042;6.838;2022-09-13T02:56:52;68580.00;;;16.30;100.00
24746;BME280;12845;52.042;6.838;2022-09-13T02:59:23;68563.81;;;16.20;100.00
24746;BME280;12845;52.042;6.838;2022-09-13T03:06:44;68589.72;;;16.39;100.00
24746;BME280;12845;52.042;6.838;2022-09-13T03:09:10;68587.41;;;16.37;100.00
24746;BME280;12845;52.042;6.838;2022-09-13T03:11:46;68582.88;;;16.33;100.00
24746;BME280;12845;52.042;6.838;2022-09-13T03:25:05;68584.59;;;16.34;100.00
24746;BME280;12845;52.042;6.838;2022-09-13T03:27:45;68589.31;;;16.41;100.00
24746;BME280;12845;52.042;6.838;2022-09-13T03:30:16;68586.28;;;16.36;100.00
24746;BME280;12845;52.042;6.838;2022-09-13T03:32:49;68585.72;;;16.35;100.00
24746;BME280;12845;52.042;6.838;2022-09-13T03:38:12;68576.59;;;16.27;100.00
24746;BME280;12845;52.042;6.838;2022-09-13T03:40:55;68572.03;;;16.23;100.00
24746;BME280;12845;52.042;6.838;2022-09-13T03:43:32;68566.69;;;16.23;100.00
24746;BME280;12845;52.042;6.838;2022-09-13T03:46:07;68568.03;;;16.19;100.00
24746;BME280;12845;52.042;6.838;2022-09-13T03:51:05;68576.03;;;16.27;100.00
24746;BME280;12845;52.042;6.838;2022-09-13T03:53:35;68568.63;;;16.20;100.00
24746;BME280;12845;52.042;6.838;2022-09-13T03:56:13;68576.25;;;16.22;100.00
24746;BME280;12845;52.042;6.838;2022-09-13T03:58:39;68577.72;;;16.28;100.00
24746;BME280;12845;52.042;6.838;2022-09-13T04:03:30;68578.88;;;16.29;100.00
24746;BME280;12845;52.042;6.838;2022-09-13T04:05:55;68574.31;;;16.25;100.00
24746;BME280;12845;52.042;6.838;2022-09-13T04:10:49;68575.47;;;16.26;100.00
24746;BME280;12845;52.042;6.838;2022-09-13T04:13:15;68576.59;;;16.27;100.00
24746;BME280;12845;52.042;6.838;2022-09-13T04:15:41;68570.31;;;16.21;100.00
24746;BME280;12845;52.042;6.838;2022-09-13T04:20:33;68578.31;;;16.29;100.00
24746;BME280;12845;52.042;6.838;2022-09-13T04:25:25;68582.47;;;16.35;100.00
24746;BME280;12845;52.042;6.838;2022-09-13T04:27:54;68593.13;;;16.42;100.00
24746;BME280;12845;52.042;6.838;2022-09-13T04:30:20;68593.28;;;16.44;100.00
24746;BME280;12845;52.042;6.838;2022-09-13T04:32:46;68598.44;;;16.49;100.00
24746;BME280;12845;52.042;6.838;2022-09-13T04:37:37;68599.97;;;16.48;100.00
24746;BME280;12845;52.042;6.838;2022-09-13T04:40:04;68597.09;;;16.45;100.00
24746;BME280;12845;52.042;6.838;2022-09-13T04:42:30;68595.97;;;16.44;100.00
24746;BME280;12845;52.042;6.838;2022-09-13T04:44:56;68590.28;;;16.39;100.00
24746;BME280;12845;52.042;6.838;2022-09-13T04:47:21;68591.44;;;16.40;100.00
24746;BME280;12845;52.042;6.838;2022-09-13T04:49:47;68590.84;;;16.40;100.00
24746;BME280;12845;52.042;6.838;2022-09-13T04:52:13;68596.81;;;16.40;100.00
24746;BME280;12845;52.042;6.838;2022-09-13T04:54:38;68591.44;;;16.40;100.00
24746;BME280;12845;52.042;6.838;2022-09-13T04:57:03;68597.69;;;16.46;100.00
24746;BME280;12845;52.042;6.838;2022-09-13T04:59:29;68601.69;;;16.50;100.00
24746;BME280;12845;52.042;6.838;2022-09-13T05:01:54;68608.53;;;16.56;100.00
24746;BME280;12845;52.042;6.838;2022-09-13T05:04:20;68604.13;;;16.54;100.00
24746;BME280;12845;52.042;6.838;2022-09-13T05:06:45;68605.66;;;16.53;100.00
24746;BME280;12845;52.042;6.838;2022-09-13T05:09:13;68611.94;;;16.59;100.00
24746;BME280;12845;52.042;6.838;2022-09-13T05:11:39;68614.97;;;16.64;100.00
24746;BME280;12845;52.042;6.838;2022-09-13T05:14:04;68622.44;;;16.63;100.00
24746;BME280;12845;52.042;6.838;2022-09-13T05:16:31;68627.56;;;16.68;100.00
24746;BME280;12845;52.042;6.838;2022-09-13T05:18:57;68632.72;;;16.73;100.00
24746;BME280;12845;52.042;6.838;2022-09-13T05:23:49;68636.72;;;16.76;100.00
24746;BME280;12845;52.042;6.838;2022-09-13T05:26:15;68631.91;;;16.77;100.00
24746;BME280;12845;52.042;6.838;2022-09-13T05:28:41;68633.63;;;16.78;100.00
24746;BME280;12845;52.042;6.838;2022-09-13T05:33:46;68633.06;;;16.78;100.00
24746;BME280;12845;52.042;6.838;2022-09-13T05:38:37;68633.63;;;16.78;100.00
24746;BME280;12845;52.042;6.838;2022-09-13T05:43:32;68633.63;;;16.78;100.00
24746;BME280;12845;52.042;6.838;2022-09-13T05:48:25;68636.06;;;16.83;100.00
24746;BME280;12845;52.042;6.838;2022-09-13T05:50:51;68643.00;;;16.82;100.00
24746;BME280;12845;52.042;6.838;2022-09-13T05:53:16;68648.13;;;16.86;100.00
24746;BME280;12845;52.042;6.838;2022-09-13T05:55:41;68642.75;;;16.86;100.00
24746;BME280;12845;52.042;6.838;2022-09-13T05:58:07;68642.75;;;16.86;100.00
24746;BME280;12845;52.042;6.838;2022-09-13T06:00:32;68645.03;;;16.88;100.00
24746;BME280;12845;52.042;6.838;2022-09-13T06:02:58;68652.44;;;16.95;100.00
24746;BME280;12845;52.042;6.838;2022-09-13T06:10:14;68660.69;;;16.98;100.00
24746;BME280;12845;52.042;6.838;2022-09-13T06:12:40;68661.00;;;17.03;100.00
24746;BME280;12845;52.042;6.838;2022-09-13T06:17:31;68667.84;;;17.09;100.00
24746;BME280;12845;52.042;6.838;2022-09-13T06:19:56;68671.84;;;17.12;100.00
24746;BME280;12845;52.042;6.838;2022-09-13T06:22:21;68671.84;;;17.12;100.00
24746;BME280;12845;52.042;6.838;2022-09-13T06:24:47;68670.28;;;17.13;100.00
24746;BME280;12845;52.042;6.838;2022-09-13T06:27:12;68681.78;;;17.17;100.00
24746;BME280;12845;52.042;6.838;2022-09-13T06:29:38;68686.09;;;17.25;100.00
24746;BME280;12845;52.042;6.838;2022-09-13T06:32:03;68691.22;;;17.30;100.00
24746;BME280;12845;52.042;6.838;2022-09-13T06:34:28;68695.47;;;17.29;100.00
24746;BME280;12845;52.042;6.838;2022-09-13T06:36:54;68700.03;;;17.33;99.63
24746;BME280;12845;52.042;6.838;2022-09-13T06:39:19;68700.38;;;17.38;99.70
24746;BME280;12845;52.042;6.838;2022-09-13T06:44:10;68697.97;;;17.43;99.14
24746;BME280;12845;52.042;6.838;2022-09-13T06:46:36;68711.19;;;17.48;99.04
24746;BME280;12845;52.042;6.838;2022-09-13T06:49:04;68713.66;;;17.52;98.52
24746;BME280;12845;52.042;6.838;2022-09-13T06:51:30;68718.03;;;17.54;98.93
24746;BME280;12845;52.042;6.838;2022-09-13T06:53:57;68717.47;;;17.53;98.43
24746;BME280;12845;52.042;6.838;2022-09-13T06:56:34;68723.75;;;17.59;98.84
24746;BME280;12845;52.042;6.838;2022-09-13T06:59:02;68723.75;;;17.59;98.81
24746;BME280;12845;52.042;6.838;2022-09-13T07:01:33;68722.63;;;17.58;98.58
24746;BME280;12845;52.042;6.838;2022-09-13T07:08:57;68736.31;;;17.70;97.60
24746;BME280;12845;52.042;6.838;2022-09-13T07:11:25;68739.16;;;17.73;97.93
24746;BME280;12845;52.042;6.838;2022-09-13T07:13:52;68741.03;;;17.77;96.86
24746;BME280;12845;52.042;6.838;2022-09-13T07:16:19;68747.72;;;17.80;97.15
24746;BME280;12845;52.042;6.838;2022-09-13T07:18:57;68744.88;;;17.78;97.37
24746;BME280;12845;52.042;6.838;2022-09-13T07:21:24;68747.16;;;17.80;97.41
24746;BME280;12845;52.042;6.838;2022-09-13T07:23:51;68755.16;;;17.87;97.14
24746;BME280;12845;52.042;6.838;2022-09-13T07:31:17;68769.41;;;18.00;95.80
24746;BME280;12845;52.042;6.838;2022-09-13T07:36:10;68760.59;;;17.97;96.24
24746;BME280;12845;52.042;6.838;2022-09-13T07:38:37;68774.56;;;18.04;95.94
24746;BME280;12845;52.042;6.838;2022-09-13T07:41:04;68771.69;;;18.02;96.10
24746;BME280;12845;52.042;6.838;2022-09-13T07:48:30;68783.69;;;18.13;95.17
24746;BME280;12845;52.042;6.838;2022-09-13T07:53:28;68787.19;;;18.09;96.37
24746;BME280;12845;52.042;6.838;2022-09-13T07:55:59;68788.81;;;18.17;95.27
24746;BME280;12845;52.042;6.838;2022-09-13T07:58:25;68795.66;;;18.23;94.67
24746;BME280;12845;52.042;6.838;2022-09-13T08:00:50;68799.09;;;18.26;95.04
24746;BME280;12845;52.042;6.838;2022-09-13T08:03:15;68789.53;;;18.20;95.49
24746;BME280;12845;52.042;6.838;2022-09-13T08:08:06;68805.53;;;18.35;95.34
24746;BME280;12845;52.042;6.838;2022-09-13T08:10:32;68809.53;;;18.38;95.23
24746;BME280;12845;52.042;6.838;2022-09-13T08:12:58;68816.22;;;18.42;95.23
24746;BME280;12845;52.042;6.838;2022-09-13T08:17:49;68823.81;;;18.51;95.07
24746;BME280;12845;52.042;6.838;2022-09-13T08:20:14;68825.09;;;18.55;94.92
24746;BME280;12845;52.042;6.838;2022-09-13T08:22:40;68831.06;;;18.55;94.91
24746;BME280;12845;52.042;6.838;2022-09-13T08:25:06;68847.03;;;18.69;95.32
24746;BME280;12845;52.042;6.838;2022-09-13T08:27:31;68850.09;;;18.75;95.03
24746;BME280;12845;52.042;6.838;2022-09-13T08:29:56;68858.50;;;18.80;94.78
24746;BME280;12845;52.042;6.838;2022-09-13T08:32:22;68871.88;;;18.87;94.16
24746;BME280;12845;52.042;6.838;2022-09-13T08:34:47;68863.06;;;18.84;94.53
24746;BME280;12845;52.042;6.838;2022-09-13T08:37:12;68868.78;;;18.89;94.69
24746;BME280;12845;52.042;6.838;2022-09-13T08:39:38;68870.06;;;18.92;94.79
24746;BME280;12845;52.042;6.838;2022-09-13T08:45:00;68874.66;;;18.97;95.34
24746;BME280;12845;52.042;6.838;2022-09-13T08:50:00;68881.66;;;19.05;96.36
24746;BME280;12845;52.042;6.838;2022-09-13T08:52:32;68888.75;;;19.07;96.05
24746;BME280;12845;52.042;6.838;2022-09-13T08:55:29;68884.34;;;19.05;97.07
24746;BME280;12845;52.042;6.838;2022-09-13T09:00:48;68898.06;;;19.17;97.47
24746;BME280;12845;52.042;6.838;2022-09-13T09:03:39;68903.03;;;19.20;98.20
24746;BME280;12845;52.042;6.838;2022-09-13T09:11:28;68928.75;;;19.43;99.28
24746;BME280;12845;52.042;6.838;2022-09-13T09:16:36;68935.78;;;19.51;98.96
24746;BME280;12845;52.042;6.838;2022-09-13T09:21:48;68945.31;;;19.57;98.83
24746;BME280;12845;52.042;6.838;2022-09-13T09:24:19;68964.78;;;19.75;98.87
24746;BME280;12845;52.042;6.838;2022-09-13T09:26:45;68972.91;;;19.84;97.75
24746;BME280;12845;52.042;6.838;2022-09-13T09:29:22;68971.22;;;19.83;97.55
24746;BME280;12845;52.042;6.838;2022-09-13T09:34:36;68973.50;;;19.85;97.79
24746;BME280;12845;52.042;6.838;2022-09-13T09:37:24;68959.38;;;19.75;99.96
24746;BME280;12845;52.042;6.838;2022-09-13T09:39:57;68970.19;;;19.75;99.04
24746;BME280;12845;52.042;6.838;2022-09-13T09:42:27;68962.06;;;19.75;98.73
24746;BME280;12845;52.042;6.838;2022-09-13T09:45:02;68967.63;;;19.77;98.68
24746;BME280;12845;52.042;6.838;2022-09-13T09:47:35;68965.34;;;19.75;98.60
24746;BME280;12845;52.042;6.838;2022-09-13T09:50:17;68951.94;;;19.68;99.64
24746;BME280;12845;52.042;6.838;2022-09-13T09:53:03;68964.78;;;19.75;99.10
24746;BME280;12845;52.042;6.838;2022-09-13T09:55:41;68979.03;;;19.88;99.34
24746;BME280;12845;52.042;6.838;2022-09-13T09:58:11;68986.50;;;19.94;97.76
24746;BME280;12845;52.042;6.838;2022-09-13T10:00:56;68986.50;;;19.94;98.43
24746;BME280;12845;52.042;6.838;2022-09-13T10:03:28;68983.94;;;19.97;98.39
24746;BME280;12845;52.042;6.838;2022-09-13T10:06:10;68993.34;;;20.00;98.28
24746;BME280;12845;52.042;6.838;2022-09-13T10:08:39;68998.47;;;20.05;97.42
24746;BME280;12845;52.042;6.838;2022-09-13T10:11:05;69007.38;;;20.18;97.59
24746;BME280;12845;52.042;6.838;2022-09-13T10:13:31;69029.94;;;20.33;96.26
24746;BME280;12845;52.042;6.838;2022-09-13T10:16:02;69021.09;;;20.30;96.24
24746;BME280;12845;52.042;6.838;2022-09-13T10:18:33;69033.34;;;20.36;95.06
24746;BME280;12845;52.042;6.838;2022-09-13T10:26:23;69051.84;;;20.55;93.80
24746;BME280;12845;52.042;6.838;2022-09-13T10:33:57;69087.84;;;20.87;91.78
24746;BME280;12845;52.042;6.838;2022-09-13T10:36:28;69095.28;;;20.94;91.91
24746;BME280;12845;52.042;6.838;2022-09-13T10:39:00;69103.88;;;21.02;90.98
24746;BME280;12845;52.042;6.838;2022-09-13T10:41:29;69097.56;;;20.96;88.96
24746;BME280;12845;52.042;6.838;2022-09-13T10:43:59;69099.72;;;20.95;89.52
24746;BME280;12845;52.042;6.838;2022-09-13T10:46:28;69093.41;;;20.90;89.15
24746;BME280;12845;52.042;6.838;2022-09-13T10:48:54;69095.72;;;20.92;88.92
24746;BME280;12845;52.042;6.838;2022-09-13T10:53:50;69095.28;;;20.94;89.63
24746;BME280;12845;52.042;6.838;2022-09-13T10:56:31;69085.16;;;20.87;88.84
24746;BME280;12845;52.042;6.838;2022-09-13T10:59:25;69098.56;;;20.94;89.71
24746;BME280;12845;52.042;6.838;2022-09-13T11:07:43;69095.44;;;20.96;89.02
24746;BME280;12845;52.042;6.838;2022-09-13T11:10:56;69109.03;;;21.06;88.35
24746;BME280;12845;52.042;6.838;2022-09-13T11:14:05;69107.31;;;21.05;88.98
24746;BME280;12845;52.042;6.838;2022-09-13T11:17:03;69116.88;;;21.11;87.73
24746;BME280;12845;52.042;6.838;2022-09-13T11:22:57;69145.66;;;21.39;85.95
24746;BME280;12845;52.042;6.838;2022-09-13T11:31:20;69179.41;;;21.69;81.44
24746;BME280;12845;52.042;6.838;2022-09-13T11:36:19;69168.53;;;21.59;81.34
24746;BME280;12845;52.042;6.838;2022-09-13T11:38:53;69178.09;;;21.66;82.02
24746;BME280;12845;52.042;6.838;2022-09-13T11:49:50;69184.28;;;21.78;79.90
24746;BME280;12845;52.042;6.838;2022-09-13T11:52:54;69193.44;;;21.86;80.40
24746;BME280;12845;52.042;6.838;2022-09-13T11:55:27;69212.03;;;21.98;80.66
24746;BME280;12845;52.042;6.838;2022-09-13T11:58:00;69246.97;;;22.29;79.81
24746;BME280;12845;52.042;6.838;2022-09-13T12:00:32;69250.25;;;22.30;78.57
24746;BME280;12845;52.042;6.838;2022-09-13T12:05:41;69251.41;;;22.31;78.62
24746;BME280;12845;52.042;6.838;2022-09-13T12:08:28;69235.69;;;22.22;80.41
24746;BME280;12845;52.042;6.838;2022-09-13T12:10:59;69227.63;;;22.15;80.54
24746;BME280;12845;52.042;6.838;2022-09-13T12:13:31;69215.63;;;22.04;81.02
24746;BME280;12845;52.042;6.838;2022-09-13T12:16:05;69219.47;;;22.05;79.56
24746;BME280;12845;52.042;6.838;2022-09-13T12:18:43;69215.47;;;22.01;80.12
24746;BME280;12845;52.042;6.838;2022-09-13T12:21:12;69238.53;;;22.24;79.20
24746;BME280;12845;52.042;6.838;2022-09-13T12:23:50;69277.88;;;22.57;76.26
24746;BME280;12845;52.042;6.838;2022-09-13T12:26:23;69306.38;;;22.80;76.36
24746;BME280;12845;52.042;6.838;2022-09-13T12:28:54;69275.75;;;22.58;76.33
24746;BME280;12845;52.042;6.838;2022-09-13T12:31:26;69274.75;;;22.59;76.31
24746;BME280;12845;52.042;6.838;2022-09-13T12:33:52;69285.91;;;22.64;76.16
24746;BME280;12845;52.042;6.838;2022-09-13T12:36:34;69263.00;;;22.44;76.26
24746;BME280;12845;52.042;6.838;2022-09-13T12:45:25;69245.56;;;22.33;75.71
24746;BME280;12845;52.042;6.838;2022-09-13T13:01:47;69269.44;;;22.52;74.88
24746;BME280;12845;52.042;6.838;2022-09-13T13:09:36;69285.91;;;22.64;73.70
24746;BME280;12845;52.042;6.838;2022-09-13T13:12:11;69282.03;;;22.63;74.79
24746;BME280;12845;52.042;6.838;2022-09-13T13:14:49;69281.72;;;22.58;74.26
24746;BME280;12845;52.042;6.838;2022-09-13T13:17:38;69274.03;;;22.56;73.62
24746;BME280;12845;52.042;6.838;2022-09-13T13:23:19;69300.78;;;22.78;73.97
24746;BME280;12845;52.042;6.838;2022-09-13T13:39:11;69372.25;;;23.39;72.21
24746;BME280;12845;52.042;6.838;2022-09-13T13:57:37;69403.22;;;23.67;68.90
24746;BME280;12845;52.042;6.838;2022-09-13T14:00:25;69421.88;;;23.88;67.30
24746;BME280;12845;52.042;6.838;2022-09-13T14:08:34;69400.63;;;23.69;64.41
24746;BME280;12845;52.042;6.838;2022-09-13T14:13:42;69442.66;;;24.09;65.76
24746;BME280;12845;52.042;6.838;2022-09-13T14:21:43;69421.13;;;23.85;63.24
24746;BME280;12845;52.042;6.838;2022-09-13T14:26:46;69464.13;;;24.23;60.69
24746;BME280;12845;52.042;6.838;2022-09-13T14:29:16;69468.84;;;24.30;61.65
24746;BME280;12845;52.042;6.838;2022-09-13T14:31:47;69483.06;;;24.40;60.21
24746;BME280;12845;52.042;6.838;2022-09-13T14:34:31;69471.16;;;24.32;59.58
24746;BME280;12845;52.042;6.838;2022-09-13T14:37:00;69488.38;;;24.47;59.23
24746;BME280;12845;52.042;6.838;2022-09-13T14:39:27;69479.19;;;24.39;60.07
24746;BME280;12845;52.042;6.838;2022-09-13T14:42:13;69456.25;;;24.19;58.97
24746;BME280;12845;52.042;6.838;2022-09-13T14:44:46;69429.16;;;23.92;57.88
24746;BME280;12845;52.042;6.838;2022-09-13T14:49:44;69398.63;;;23.62;59.89
24746;BME280;12845;52.042;6.838;2022-09-13T14:52:26;69428.03;;;23.91;59.65
24746;BME280;12845;52.042;6.838;2022-09-13T14:54:56;69414.97;;;23.82;58.81
24746;BME280;12845;52.042;6.838;2022-09-13T14:57:31;69385.59;;;23.53;61.46
24746;BME280;12845;52.042;6.838;2022-09-13T15:00:27;69434.19;;;23.94;61.75
24746;BME280;12845;52.042;6.838;2022-09-13T15:02:59;69464.84;;;24.26;58.00
24746;BME280;12845;52.042;6.838;2022-09-13T15:05:29;69496.41;;;24.54;56.92
24746;BME280;12845;52.042;6.838;2022-09-13T15:07:55;69485.66;;;24.47;56.37
24746;BME280;12845;52.042;6.838;2022-09-13T15:10:25;69495.25;;;24.53;56.71
24746;BME280;12845;52.042;6.838;2022-09-13T15:13:09;69519.50;;;24.77;56.52
24746;BME280;12845;52.042;6.838;2022-09-13T15:15:39;69497.13;;;24.58;55.06
24746;BME280;12845;52.042;6.838;2022-09-13T15:21:02;69497.56;;;24.56;57.68
24746;BME280;12845;52.042;6.838;2022-09-13T15:23:34;69523.78;;;24.76;55.40
24746;BME280;12845;52.042;6.838;2022-09-13T15:26:06;69496.84;;;24.52;55.10
24746;BME280;12845;52.042;6.838;2022-09-13T15:28:35;69488.38;;;24.47;54.97
24746;BME280;12845;52.042;6.838;2022-09-13T15:31:11;69467.00;;;24.26;56.01
24746;BME280;12845;52.042;6.838;2022-09-13T15:33:44;69457.41;;;24.20;56.92
24746;BME280;12845;52.042;6.838;2022-09-13T15:38:58;69454.81;;;24.13;57.42
24746;BME280;12845;52.042;6.838;2022-09-13T15:41:34;69452.25;;;24.15;57.83
24746;BME280;12845;52.042;6.838;2022-09-13T15:44:02;69480.19;;;24.38;57.42
24746;BME280;12845;52.042;6.838;2022-09-13T15:46:28;69475.00;;;24.33;57.36
24746;BME280;12845;52.042;6.838;2022-09-13T15:48:56;69496.41;;;24.54;56.12
24746;BME280;12845;52.042;6.838;2022-09-13T15:51:22;69474.03;;;24.35;55.82
24746;BME280;12845;52.042;6.838;2022-09-13T15:53:48;69439.06;;;24.03;57.64
24746;BME280;12845;52.042;6.838;2022-09-13T15:56:16;69416.69;;;23.83;59.27
24746;BME280;12845;52.042;6.838;2022-09-13T15:58:42;69405.09;;;23.71;58.31
24746;BME280;12845;52.042;6.838;2022-09-13T16:01:16;69362.25;;;23.35;59.58
24746;BME280;12845;52.042;6.838;2022-09-13T16:03:42;69342.78;;;23.17;61.20
24746;BME280;12845;52.042;6.838;2022-09-13T16:06:08;69308.81;;;22.85;61.36
24746;BME280;12845;52.042;6.838;2022-09-13T16:08:38;69291.78;;;22.72;61.09
24746;BME280;12845;52.042;6.838;2022-09-13T16:11:04;69298.06;;;22.78;62.40
24746;BME280;12845;52.042;6.838;2022-09-13T16:13:30;69303.22;;;22.82;62.80
24746;BME280;12845;52.042;6.838;2022-09-13T16:15:55;69307.25;;;22.86;61.31
24746;BME280;12845;52.042;6.838;2022-09-13T16:18:22;69304.63;;;22.79;61.20
24746;BME280;12845;52.042;6.838;2022-09-13T16:20:48;69295.66;;;22.73;60.03
24746;BME280;12845;52.042;6.838;2022-09-13T16:23:14;69269.44;;;22.52;61.46
24746;BME280;12845;52.042;6.838;2022-09-13T16:25:39;69270.28;;;22.48;61.20
24746;BME280;12845;52.042;6.838;2022-09-13T16:28:05;69262.28;;;22.41;61.41
24746;BME280;12845;52.042;6.838;2022-09-13T16:30:31;69247.69;;;22.33;60.55
24746;BME280;12845;52.042;6.838;2022-09-13T16:32:58;69248.84;;;22.34;62.34
24746;BME280;12845;52.042;6.838;2022-09-13T16:35:28;69248.28;;;22.33;60.50
24746;BME280;12845;52.042;6.838;2022-09-13T16:37:54;69233.38;;;22.20;60.74
24746;BME280;12845;52.042;6.838;2022-09-13T16:40:20;69235.09;;;22.21;60.93
24746;BME280;12845;52.042;6.838;2022-09-13T16:42:46;69233.22;;;22.17;61.68
24746;BME280;12845;52.042;6.838;2022-09-13T16:45:12;69215.63;;;22.04;61.65
24746;BME280;12845;52.042;6.838;2022-09-13T16:47:38;69210.31;;;21.97;58.40
24746;BME280;12845;52.042;6.838;2022-09-13T16:50:05;69202.31;;;21.90;59.10
24746;BME280;12845;52.042;6.838;2022-09-13T16:52:31;69205.75;;;21.93;59.88
24746;BME280;12845;52.042;6.838;2022-09-13T16:54:57;69188.56;;;21.77;60.52
24746;BME280;12845;52.042;6.838;2022-09-13T16:57:23;69182.69;;;21.70;60.91
24746;BME280;12845;52.042;6.838;2022-09-13T16:59:49;69161.25;;;21.55;60.31
24746;BME280;12845;52.042;6.838;2022-09-13T17:02:17;69146.53;;;21.45;61.36
24746;BME280;12845;52.042;6.838;2022-09-13T17:04:42;69151.53;;;21.47;61.31
24746;BME280;12845;52.042;6.838;2022-09-13T17:07:08;69147.78;;;21.38;62.15
24746;BME280;12845;52.042;6.838;2022-09-13T17:09:33;69135.91;;;21.30;63.51
24746;BME280;12845;52.042;6.838;2022-09-13T17:11:59;69131.19;;;21.24;62.70
24746;BME280;12845;52.042;6.838;2022-09-13T17:14:25;69124.44;;;21.20;63.40
24746;BME280;12845;52.042;6.838;2022-09-13T17:16:53;69122.59;;;21.16;63.23
24746;BME280;12845;52.042;6.838;2022-09-13T17:19:24;69107.16;;;21.02;62.43
24746;BME280;12845;52.042;6.838;2022-09-13T17:21:50;69084.59;;;20.87;64.02
24746;BME280;12845;52.042;6.838;2022-09-13T17:24:16;69079.44;;;20.82;64.36
24746;BME280;12845;52.042;6.838;2022-09-13T17:26:42;69073.41;;;20.72;65.38
24746;BME280;12845;52.042;6.838;2022-09-13T17:29:10;69054.53;;;20.55;65.19
24746;BME280;12845;52.042;6.838;2022-09-13T17:31:36;69039.97;;;20.47;65.73
24746;BME280;12845;52.042;6.838;2022-09-13T17:34:01;69053.97;;;20.55;66.34
24746;BME280;12845;52.042;6.838;2022-09-13T17:38:56;69029.94;;;20.33;67.20
24746;BME280;12845;52.042;6.838;2022-09-13T17:41:22;69020.78;;;20.25;66.46
24746;BME280;12845;52.042;6.838;2022-09-13T17:43:47;68994.47;;;20.01;67.76
24746;BME280;12845;52.042;6.838;2022-09-13T17:48:40;68983.63;;;19.92;69.33
24746;BME280;12845;52.042;6.838;2022-09-13T17:51:09;68971.94;;;19.86;69.81
24746;BME280;12845;52.042;6.838;2022-09-13T17:53:43;68968.34;;;19.80;69.51